sensor_id;sensor_type;location;lat;lon;timestamp;P1;durP1;ratioP1;P2;durP2;ratioP2
60306;SDS011;46155;52.364;6.580;2023-08-17T03:01:22;11.23;;;9.80;;
60306;SDS011;46155;52.364;6.580;2023-08-17T03:03:48;13.07;;;9.50;;
60306;SDS011;46155;52.364;6.580;2023-08-17T03:06:13;9.83;;;9.00;;
60306;SDS011;46155;52.364;6.580;2023-08-17T03:08:38;10.93;;;9.37;;
60306;SDS011;46155;52.364;6.580;2023-08-17T03:11:04;10.53;;;9.70;;
60306;SDS011;46155;52.364;6.580;2023-08-17T03:13:32;14.80;;;10.50;;
60306;SDS011;46155;52.364;6.580;2023-08-17T03:15:57;10.53;;;9.47;;
60306;SDS011;46155;52.364;6.580;2023-08-17T03:18:22;10.70;;;9.70;;
60306;SDS011;46155;52.364;6.580;2023-08-17T03:20:48;10.73;;;9.77;;
60306;SDS011;46155;52.364;6.580;2023-08-17T03:23:13;10.17;;;9.43;;
60306;SDS011;46155;52.364;6.580;2023-08-17T03:25:38;12.37;;;10.23;;
60306;SDS011;46155;52.364;6.580;2023-08-17T03:28:04;11.87;;;9.93;;
60306;SDS011;46155;52.364;6.580;2023-08-17T03:30:29;10.60;;;9.50;;
60306;SDS011;46155;52.364;6.580;2023-08-17T03:32:54;11.27;;;10.07;;
60306;SDS011;46155;52.364;6.580;2023-08-17T03:35:20;10.87;;;9.93;;
60306;SDS011;46155;52.364;6.580;2023-08-17T03:37:45;11.00;;;9.93;;
60306;SDS011;46155;52.364;6.580;2023-08-17T03:40:11;9.90;;;9.20;;
60306;SDS011;46155;52.364;6.580;2023-08-17T03:42:36;10.90;;;9.80;;
60306;SDS011;46155;52.364;6.580;2023-08-17T03:45:02;11.90;;;10.27;;
60306;SDS011;46155;52.364;6.580;2023-08-17T03:47:28;12.10;;;9.87;;
60306;SDS011;46155;52.364;6.580;2023-08-17T03:49:53;10.47;;;9.63;;
60306;SDS011;46155;52.364;6.580;2023-08-17T03:52:19;12.13;;;9.10;;
60306;SDS011;46155;52.364;6.580;2023-08-17T03:54:44;10.07;;;9.27;;
60306;SDS011;46155;52.364;6.580;2023-08-17T03:57:10;11.33;;;9.43;;
60306;SDS011;46155;52.364;6.580;2023-08-17T03:59:36;10.23;;;9.30;;
60306;SDS011;46155;52.364;6.580;2023-08-17T04:02:02;9.83;;;8.67;;
60306;SDS011;46155;52.364;6.580;2023-08-17T04:04:27;10.80;;;9.63;;
60306;SDS011;46155;52.364;6.580;2023-08-17T04:06:52;9.93;;;9.10;;
60306;SDS011;46155;52.364;6.580;2023-08-17T04:09:17;9.40;;;8.57;;
60306;SDS011;46155;52.364;6.580;2023-08-17T04:11:43;10.80;;;9.80;;
60306;SDS011;46155;52.364;6.580;2023-08-17T04:14:09;10.03;;;9.23;;
60306;SDS011;46155;52.364;6.580;2023-08-17T04:16:35;10.43;;;9.73;;
60306;SDS011;46155;52.364;6.580;2023-08-17T04:19:00;15.97;;;9.57;;
60306;SDS011;46155;52.364;6.580;2023-08-17T04:21:25;9.30;;;8.37;;
60306;SDS011;46155;52.364;6.580;2023-08-17T04:23:51;10.30;;;9.40;;
60306;SDS011;46155;52.364;6.580;2023-08-17T04:26:16;9.97;;;9.23;;
60306;SDS011;46155;52.364;6.580;2023-08-17T04:28:41;9.70;;;8.90;;
60306;SDS011;46155;52.364;6.580;2023-08-17T04:31:07;10.23;;;9.23;;
60306;SDS011;46155;52.364;6.580;2023-08-17T04:33:32;10.93;;;9.97;;
60306;SDS011;46155;52.364;6.580;2023-08-17T04:35:57;9.60;;;8.80;;
60306;SDS011;46155;52.364;6.580;2023-08-17T04:38:24;10.60;;;9.70;;
60306;SDS011;46155;52.364;6.580;2023-08-17T04:40:50;12.33;;;11.43;;
60306;SDS011;46155;52.364;6.580;2023-08-17T04:43:15;11.53;;;10.63;;
60306;SDS011;46155;52.364;6.580;2023-08-17T04:45:40;11.23;;;9.70;;
60306;SDS011;46155;52.364;6.580;2023-08-17T04:48:06;10.87;;;8.27;;
60306;SDS011;46155;52.364;6.580;2023-08-17T04:50:31;8.90;;;8.30;;
60306;SDS011;46155;52.364;6.580;2023-08-17T04:52:57;10.80;;;8.03;;
60306;SDS011;46155;52.364;6.580;2023-08-17T04:55:22;10.47;;;7.40;;
60306;SDS011;46155;52.364;6.580;2023-08-17T04:57:48;9.37;;;7.63;;
60306;SDS011;46155;52.364;6.580;2023-08-17T05:00:15;8.77;;;7.70;;
60306;SDS011;46155;52.364;6.580;2023-08-17T05:02:41;8.30;;;7.70;;
60306;SDS011;46155;52.364;6.580;2023-08-17T05:05:07;9.83;;;8.43;;
60306;SDS011;46155;52.364;6.580;2023-08-17T05:07:35;9.70;;;8.53;;
60306;SDS011;46155;52.364;6.580;2023-08-17T05:10:01;13.10;;;7.37;;
60306;SDS011;46155;52.364;6.580;2023-08-17T05:12:27;9.90;;;7.77;;
60306;SDS011;46155;52.364;6.580;2023-08-17T05:14:52;10.73;;;7.50;;
60306;SDS011;46155;52.364;6.580;2023-08-17T05:17:18;9.17;;;8.37;;
60306;SDS011;46155;52.364;6.580;2023-08-17T05:19:43;13.97;;;7.77;;
60306;SDS011;46155;52.364;6.580;2023-08-17T05:22:11;7.70;;;6.93;;
60306;SDS011;46155;52.364;6.580;2023-08-17T05:24:38;11.30;;;8.60;;
60306;SDS011;46155;52.364;6.580;2023-08-17T05:27:04;9.33;;;7.97;;
60306;SDS011;46155;52.364;6.580;2023-08-17T05:29:30;9.13;;;7.70;;
60306;SDS011;46155;52.364;6.580;2023-08-17T05:31:57;9.60;;;8.67;;
60306;SDS011;46155;52.364;6.580;2023-08-17T05:34:22;8.83;;;8.07;;
60306;SDS011;46155;52.364;6.580;2023-08-17T05:36:48;8.30;;;7.67;;
60306;SDS011;46155;52.364;6.580;2023-08-17T05:39:13;8.40;;;7.70;;
60306;SDS011;46155;52.364;6.580;2023-08-17T05:41:38;12.73;;;8.10;;
60306;SDS011;46155;52.364;6.580;2023-08-17T05:44:04;9.40;;;8.50;;
60306;SDS011;46155;52.364;6.580;2023-08-17T05:46:31;9.90;;;8.87;;
60306;SDS011;46155;52.364;6.580;2023-08-17T05:48:57;13.53;;;8.23;;
60306;SDS011;46155;52.364;6.580;2023-08-17T05:51:24;8.20;;;7.50;;
60306;SDS011;46155;52.364;6.580;2023-08-17T05:53:49;8.23;;;7.53;;
60306;SDS011;46155;52.364;6.580;2023-08-17T05:56:15;10.90;;;8.77;;
60306;SDS011;46155;52.364;6.580;2023-08-17T05:58:40;8.77;;;7.87;;
60306;SDS011;46155;52.364;6.580;2023-08-17T06:01:08;11.47;;;7.70;;
60306;SDS011;46155;52.364;6.580;2023-08-17T06:03:35;7.83;;;7.10;;
60306;SDS011;46155;52.364;6.580;2023-08-17T06:06:02;8.97;;;7.97;;
60306;SDS011;46155;52.364;6.580;2023-08-17T06:08:27;7.97;;;7.13;;
60306;SDS011;46155;52.364;6.580;2023-08-17T06:10:53;9.67;;;7.93;;
60306;SDS011;46155;52.364;6.580;2023-08-17T06:13:18;8.97;;;7.87;;
60306;SDS011;46155;52.364;6.580;2023-08-17T06:15:44;14.87;;;8.87;;
60306;SDS011;46155;52.364;6.580;2023-08-17T06:18:09;9.63;;;7.40;;
60306;SDS011;46155;52.364;6.580;2023-08-17T06:20:34;10.17;;;7.97;;
60306;SDS011;46155;52.364;6.580;2023-08-17T06:23:00;8.03;;;7.40;;
60306;SDS011;46155;52.364;6.580;2023-08-17T06:25:25;7.83;;;7.13;;
60306;SDS011;46155;52.364;6.580;2023-08-17T06:27:51;7.77;;;7.07;;
60306;SDS011;46155;52.364;6.580;2023-08-17T06:30:16;8.90;;;8.00;;
60306;SDS011;46155;52.364;6.580;2023-08-17T06:32:42;9.13;;;7.17;;
60306;SDS011;46155;52.364;6.580;2023-08-17T06:35:08;8.63;;;7.70;;
60306;SDS011;46155;52.364;6.580;2023-08-17T06:37:34;7.77;;;7.17;;
60306;SDS011;46155;52.364;6.580;2023-08-17T06:40:00;12.93;;;8.03;;
60306;SDS011;46155;52.364;6.580;2023-08-17T06:42:25;8.70;;;7.77;;
60306;SDS011;46155;52.364;6.580;2023-08-17T06:44:50;7.97;;;7.33;;
60306;SDS011;46155;52.364;6.580;2023-08-17T06:47:16;8.27;;;7.50;;
60306;SDS011;46155;52.364;6.580;2023-08-17T06:49:41;9.47;;;7.77;;
60306;SDS011;46155;52.364;6.580;2023-08-17T06:52:07;7.80;;;7.10;;
60306;SDS011;46155;52.364;6.580;2023-08-17T06:54:32;8.07;;;7.37;;
60306;SDS011;46155;52.364;6.580;2023-08-17T06:56:58;10.53;;;7.67;;
60306;SDS011;46155;52.364;6.580;2023-08-17T06:59:23;6.90;;;6.40;;
60306;SDS011;46155;52.364;6.580;2023-08-17T07:01:48;12.73;;;7.13;;
60306;SDS011;46155;52.364;6.580;2023-08-17T07:04:14;10.40;;;7.40;;
60306;SDS011;46155;52.364;6.580;2023-08-17T07:06:39;8.83;;;7.93;;
60306;SDS011;46155;52.364;6.580;2023-08-17T07:09:06;7.63;;;7.07;;
60306;SDS011;46155;52.364;6.580;2023-08-17T07:11:32;13.90;;;7.20;;
60306;SDS011;46155;52.364;6.580;2023-08-17T07:13:57;9.33;;;7.00;;
60306;SDS011;46155;52.364;6.580;2023-08-17T07:16:23;8.70;;;7.77;;
60306;SDS011;46155;52.364;6.580;2023-08-17T07:18:48;7.63;;;7.03;;
60306;SDS011;46155;52.364;6.580;2023-08-17T07:21:14;7.60;;;6.67;;
60306;SDS011;46155;52.364;6.580;2023-08-17T07:23:43;7.17;;;6.37;;
60306;SDS011;46155;52.364;6.580;2023-08-17T07:26:09;10.20;;;7.23;;
60306;SDS011;46155;52.364;6.580;2023-08-17T07:28:34;10.23;;;5.90;;
60306;SDS011;46155;52.364;6.580;2023-08-17T07:30:59;9.70;;;6.17;;
60306;SDS011;46155;52.364;6.580;2023-08-17T07:33:25;10.33;;;6.17;;
60306;SDS011;46155;52.364;6.580;2023-08-17T07:35:50;7.23;;;6.23;;
60306;SDS011;46155;52.364;6.580;2023-08-17T07:38:16;10.37;;;6.73;;
60306;SDS011;46155;52.364;6.580;2023-08-17T07:40:41;10.57;;;6.47;;
60306;SDS011;46155;52.364;6.580;2023-08-17T07:43:08;7.33;;;6.57;;
60306;SDS011;46155;52.364;6.580;2023-08-17T07:45:33;7.07;;;6.40;;
60306;SDS011;46155;52.364;6.580;2023-08-17T07:47:58;8.77;;;7.03;;
60306;SDS011;46155;52.364;6.580;2023-08-17T07:50:24;9.87;;;8.37;;
60306;SDS011;46155;52.364;6.580;2023-08-17T07:52:49;10.00;;;7.60;;
60306;SDS011;46155;52.364;6.580;2023-08-17T07:55:14;14.83;;;7.87;;
60306;SDS011;46155;52.364;6.580;2023-08-17T07:57:40;7.53;;;6.83;;
60306;SDS011;46155;52.364;6.580;2023-08-17T08:00:05;9.97;;;7.27;;
60306;SDS011;46155;52.364;6.580;2023-08-17T08:02:31;8.03;;;7.33;;
60306;SDS011;46155;52.364;6.580;2023-08-17T08:04:56;12.47;;;7.00;;
60306;SDS011;46155;52.364;6.580;2023-08-17T08:07:22;11.43;;;6.70;;
60306;SDS011;46155;52.364;6.580;2023-08-17T08:09:47;10.90;;;6.83;;
60306;SDS011;46155;52.364;6.580;2023-08-17T08:12:12;7.47;;;6.63;;
60306;SDS011;46155;52.364;6.580;2023-08-17T08:14:37;8.60;;;7.70;;
60306;SDS011;46155;52.364;6.580;2023-08-17T08:17:03;11.13;;;7.90;;
60306;SDS011;46155;52.364;6.580;2023-08-17T08:19:28;11.43;;;7.37;;
60306;SDS011;46155;52.364;6.580;2023-08-17T08:21:53;10.27;;;7.37;;
60306;SDS011;46155;52.364;6.580;2023-08-17T08:24:19;9.83;;;7.37;;
60306;SDS011;46155;52.364;6.580;2023-08-17T08:26:44;10.17;;;6.70;;
60306;SDS011;46155;52.364;6.580;2023-08-17T08:29:09;9.07;;;8.23;;
60306;SDS011;46155;52.364;6.580;2023-08-17T08:31:35;8.03;;;7.40;;
60306;SDS011;46155;52.364;6.580;2023-08-17T08:34:00;15.67;;;7.40;;
60306;SDS011;46155;52.364;6.580;2023-08-17T08:36:25;7.77;;;7.07;;
60306;SDS011;46155;52.364;6.580;2023-08-17T08:38:51;12.93;;;7.60;;
60306;SDS011;46155;52.364;6.580;2023-08-17T08:41:16;9.30;;;8.10;;
60306;SDS011;46155;52.364;6.580;2023-08-17T08:43:42;10.77;;;7.43;;
60306;SDS011;46155;52.364;6.580;2023-08-17T08:46:07;8.37;;;7.53;;
60306;SDS011;46155;52.364;6.580;2023-08-17T08:48:33;10.43;;;7.40;;
60306;SDS011;46155;52.364;6.580;2023-08-17T08:51:00;9.23;;;7.27;;
60306;SDS011;46155;52.364;6.580;2023-08-17T08:53:36;8.70;;;7.30;;
60306;SDS011;46155;52.364;6.580;2023-08-17T08:56:03;9.30;;;8.10;;
60306;SDS011;46155;52.364;6.580;2023-08-17T08:58:29;13.17;;;6.87;;
60306;SDS011;46155;52.364;6.580;2023-08-17T09:00:57;10.40;;;7.97;;
60306;SDS011;46155;52.364;6.580;2023-08-17T09:03:23;11.47;;;7.03;;
60306;SDS011;46155;52.364;6.580;2023-08-17T09:05:50;11.77;;;7.70;;
60306;SDS011;46155;52.364;6.580;2023-08-17T09:08:20;10.13;;;7.13;;
60306;SDS011;46155;52.364;6.580;2023-08-17T09:10:46;12.37;;;8.00;;
60306;SDS011;46155;52.364;6.580;2023-08-17T09:13:12;8.57;;;7.77;;
60306;SDS011;46155;52.364;6.580;2023-08-17T09:15:37;10.27;;;8.37;;
60306;SDS011;46155;52.364;6.580;2023-08-17T09:18:04;8.67;;;7.53;;
60306;SDS011;46155;52.364;6.580;2023-08-17T09:20:36;9.63;;;7.97;;
60306;SDS011;46155;52.364;6.580;2023-08-17T09:23:09;8.80;;;7.90;;
60306;SDS011;46155;52.364;6.580;2023-08-17T09:25:38;10.03;;;8.30;;
60306;SDS011;46155;52.364;6.580;2023-08-17T09:28:07;10.03;;;8.47;;
60306;SDS011;46155;52.364;6.580;2023-08-17T09:33:25;8.70;;;7.80;;
60306;SDS011;46155;52.364;6.580;2023-08-17T09:35:52;10.03;;;7.07;;
60306;SDS011;46155;52.364;6.580;2023-08-17T09:38:19;17.00;;;8.67;;
60306;SDS011;46155;52.364;6.580;2023-08-17T09:40:45;9.73;;;8.73;;
60306;SDS011;46155;52.364;6.580;2023-08-17T09:43:11;9.33;;;8.47;;
60306;SDS011;46155;52.364;6.580;2023-08-17T09:45:38;9.10;;;8.30;;
60306;SDS011;46155;52.364;6.580;2023-08-17T09:48:04;10.60;;;7.37;;
60306;SDS011;46155;52.364;6.580;2023-08-17T09:50:31;8.80;;;7.67;;
60306;SDS011;46155;52.364;6.580;2023-08-17T09:52:56;8.77;;;7.67;;
60306;SDS011;46155;52.364;6.580;2023-08-17T09:55:22;12.73;;;8.07;;
60306;SDS011;46155;52.364;6.580;2023-08-17T09:57:51;9.07;;;7.77;;
60306;SDS011;46155;52.364;6.580;2023-08-17T10:00:17;8.93;;;8.03;;
60306;SDS011;46155;52.364;6.580;2023-08-17T10:02:49;9.73;;;8.00;;
60306;SDS011;46155;52.364;6.580;2023-08-17T10:05:17;13.33;;;9.03;;
60306;SDS011;46155;52.364;6.580;2023-08-17T10:07:47;8.70;;;8.07;;
60306;SDS011;46155;52.364;6.580;2023-08-17T10:10:25;9.97;;;8.53;;
60306;SDS011;46155;52.364;6.580;2023-08-17T10:15:33;9.40;;;8.60;;
60306;SDS011;46155;52.364;6.580;2023-08-17T10:18:17;13.07;;;8.63;;
60306;SDS011;46155;52.364;6.580;2023-08-17T10:21:00;10.87;;;9.80;;
60306;SDS011;46155;52.364;6.580;2023-08-17T10:23:27;12.10;;;8.90;;
60306;SDS011;46155;52.364;6.580;2023-08-17T10:25:53;9.77;;;8.37;;
60306;SDS011;46155;52.364;6.580;2023-08-17T10:28:19;9.27;;;8.47;;
60306;SDS011;46155;52.364;6.580;2023-08-17T10:30:46;10.13;;;9.10;;
60306;SDS011;46155;52.364;6.580;2023-08-17T10:33:13;9.13;;;8.33;;
60306;SDS011;46155;52.364;6.580;2023-08-17T10:35:39;12.80;;;9.27;;
60306;SDS011;46155;52.364;6.580;2023-08-17T10:38:06;10.77;;;9.73;;
60306;SDS011;46155;52.364;6.580;2023-08-17T10:40:35;11.13;;;9.40;;
60306;SDS011;46155;52.364;6.580;2023-08-17T10:43:02;10.13;;;9.13;;
60306;SDS011;46155;52.364;6.580;2023-08-17T10:45:28;10.50;;;9.57;;
60306;SDS011;46155;52.364;6.580;2023-08-17T10:50:32;9.60;;;8.63;;
60306;SDS011;46155;52.364;6.580;2023-08-17T10:52:59;10.10;;;8.97;;
60306;SDS011;46155;52.364;6.580;2023-08-17T10:55:39;9.53;;;8.53;;
60306;SDS011;46155;52.364;6.580;2023-08-17T10:58:06;10.37;;;9.47;;
60306;SDS011;46155;52.364;6.580;2023-08-17T11:00:38;9.77;;;8.77;;
60306;SDS011;46155;52.364;6.580;2023-08-17T11:03:05;10.07;;;8.60;;
60306;SDS011;46155;52.364;6.580;2023-08-17T11:05:35;10.87;;;9.37;;
60306;SDS011;46155;52.364;6.580;2023-08-17T11:08:08;9.63;;;8.73;;
60306;SDS011;46155;52.364;6.580;2023-08-17T11:10:36;10.50;;;9.53;;
60306;SDS011;46155;52.364;6.580;2023-08-17T11:13:03;9.80;;;8.90;;
60306;SDS011;46155;52.364;6.580;2023-08-17T11:15:41;9.20;;;8.50;;
60306;SDS011;46155;52.364;6.580;2023-08-17T11:18:07;9.27;;;8.37;;
60306;SDS011;46155;52.364;6.580;2023-08-17T11:20:34;8.73;;;7.93;;
60306;SDS011;46155;52.364;6.580;2023-08-17T11:23:01;9.07;;;7.90;;
60306;SDS011;46155;52.364;6.580;2023-08-17T11:25:27;8.67;;;8.07;;
60306;SDS011;46155;52.364;6.580;2023-08-17T11:27:53;9.27;;;8.47;;
60306;SDS011;46155;52.364;6.580;2023-08-17T11:30:22;27.73;;;11.27;;
60306;SDS011;46155;52.364;6.580;2023-08-17T11:32:49;10.87;;;8.93;;
60306;SDS011;46155;52.364;6.580;2023-08-17T11:35:16;9.90;;;8.83;;
60306;SDS011;46155;52.364;6.580;2023-08-17T11:37:41;10.10;;;9.23;;
60306;SDS011;46155;52.364;6.580;2023-08-17T11:40:08;9.57;;;8.80;;
60306;SDS011;46155;52.364;6.580;2023-08-17T11:42:37;12.87;;;10.10;;
60306;SDS011;46155;52.364;6.580;2023-08-17T11:45:05;10.30;;;9.50;;
60306;SDS011;46155;52.364;6.580;2023-08-17T11:47:31;10.83;;;9.83;;
60306;SDS011;46155;52.364;6.580;2023-08-17T11:50:01;10.73;;;9.60;;
60306;SDS011;46155;52.364;6.580;2023-08-17T11:52:27;9.87;;;9.07;;
60306;SDS011;46155;52.364;6.580;2023-08-17T11:54:56;11.23;;;10.10;;
60306;SDS011;46155;52.364;6.580;2023-08-17T11:57:22;12.13;;;10.80;;
60306;SDS011;46155;52.364;6.580;2023-08-17T11:59:48;16.03;;;11.20;;
60306;SDS011;46155;52.364;6.580;2023-08-17T12:02:13;12.03;;;10.40;;
60306;SDS011;46155;52.364;6.580;2023-08-17T12:04:38;11.10;;;10.20;;
60306;SDS011;46155;52.364;6.580;2023-08-17T12:07:04;11.60;;;10.47;;
60306;SDS011;46155;52.364;6.580;2023-08-17T12:09:33;11.17;;;10.03;;
60306;SDS011;46155;52.364;6.580;2023-08-17T12:11:59;11.47;;;10.23;;
60306;SDS011;46155;52.364;6.580;2023-08-17T12:14:26;14.27;;;10.57;;
60306;SDS011;46155;52.364;6.580;2023-08-17T12:16:52;11.40;;;10.33;;
60306;SDS011;46155;52.364;6.580;2023-08-17T12:19:20;12.93;;;11.37;;
60306;SDS011;46155;52.364;6.580;2023-08-17T12:21:47;11.90;;;10.00;;
60306;SDS011;46155;52.364;6.580;2023-08-17T12:24:13;11.67;;;10.53;;
60306;SDS011;46155;52.364;6.580;2023-08-17T12:26:44;11.47;;;10.37;;
60306;SDS011;46155;52.364;6.580;2023-08-17T12:29:11;13.40;;;12.10;;
60306;SDS011;46155;52.364;6.580;2023-08-17T12:31:37;14.40;;;11.23;;
60306;SDS011;46155;52.364;6.580;2023-08-17T12:34:02;11.33;;;10.37;;
60306;SDS011;46155;52.364;6.580;2023-08-17T12:36:34;12.00;;;10.87;;
60306;SDS011;46155;52.364;6.580;2023-08-17T12:39:00;13.93;;;12.63;;
60306;SDS011;46155;52.364;6.580;2023-08-17T12:41:26;14.80;;;11.43;;
60306;SDS011;46155;52.364;6.580;2023-08-17T12:43:51;15.93;;;12.50;;
60306;SDS011;46155;52.364;6.580;2023-08-17T12:46:19;15.00;;;12.67;;
60306;SDS011;46155;52.364;6.580;2023-08-17T12:48:44;13.97;;;11.63;;
60306;SDS011;46155;52.364;6.580;2023-08-17T12:51:09;13.07;;;11.47;;
60306;SDS011;46155;52.364;6.580;2023-08-17T12:53:35;16.53;;;12.33;;
60306;SDS011;46155;52.364;6.580;2023-08-17T12:56:00;14.57;;;11.93;;
60306;SDS011;46155;52.364;6.580;2023-08-17T12:58:25;11.93;;;10.87;;
60306;SDS011;46155;52.364;6.580;2023-08-17T13:00:51;13.20;;;12.00;;
60306;SDS011;46155;52.364;6.580;2023-08-17T13:03:19;15.20;;;13.60;;
60306;SDS011;46155;52.364;6.580;2023-08-17T13:05:44;12.30;;;11.07;;
60306;SDS011;46155;52.364;6.580;2023-08-17T13:08:09;13.30;;;12.10;;
60306;SDS011;46155;52.364;6.580;2023-08-17T13:10:36;13.80;;;12.53;;
60306;SDS011;46155;52.364;6.580;2023-08-17T13:13:01;13.47;;;11.50;;
60306;SDS011;46155;52.364;6.580;2023-08-17T13:15:27;12.53;;;11.33;;
60306;SDS011;46155;52.364;6.580;2023-08-17T13:17:52;13.40;;;12.00;;
60306;SDS011;46155;52.364;6.580;2023-08-17T13:20:17;12.90;;;11.80;;
60306;SDS011;46155;52.364;6.580;2023-08-17T13:22:43;17.33;;;11.73;;
60306;SDS011;46155;52.364;6.580;2023-08-17T13:25:08;13.20;;;11.80;;
60306;SDS011;46155;52.364;6.580;2023-08-17T13:27:33;16.37;;;12.50;;
60306;SDS011;46155;52.364;6.580;2023-08-17T13:29:59;13.40;;;12.20;;
60306;SDS011;46155;52.364;6.580;2023-08-17T13:32:25;10.83;;;9.80;;
60306;SDS011;46155;52.364;6.580;2023-08-17T13:34:50;14.10;;;12.80;;
60306;SDS011;46155;52.364;6.580;2023-08-17T13:37:16;12.90;;;11.67;;
60306;SDS011;46155;52.364;6.580;2023-08-17T13:39:42;13.33;;;12.00;;
60306;SDS011;46155;52.364;6.580;2023-08-17T13:42:08;13.97;;;12.57;;
60306;SDS011;46155;52.364;6.580;2023-08-17T13:44:33;18.00;;;12.90;;
60306;SDS011;46155;52.364;6.580;2023-08-17T13:46:58;15.33;;;13.23;;
60306;SDS011;46155;52.364;6.580;2023-08-17T13:49:24;19.40;;;13.67;;
60306;SDS011;46155;52.364;6.580;2023-08-17T13:51:49;14.27;;;12.60;;
60306;SDS011;46155;52.364;6.580;2023-08-17T13:54:20;12.67;;;11.30;;
60306;SDS011;46155;52.364;6.580;2023-08-17T13:56:45;13.43;;;12.17;;
60306;SDS011;46155;52.364;6.580;2023-08-17T13:59:12;14.13;;;12.73;;
60306;SDS011;46155;52.364;6.580;2023-08-17T14:01:38;12.47;;;11.30;;
60306;SDS011;46155;52.364;6.580;2023-08-17T14:04:03;19.80;;;14.70;;
60306;SDS011;46155;52.364;6.580;2023-08-17T14:06:31;13.33;;;12.13;;
60306;SDS011;46155;52.364;6.580;2023-08-17T14:08:57;16.00;;;14.40;;
60306;SDS011;46155;52.364;6.580;2023-08-17T14:11:22;20.40;;;14.83;;
60306;SDS011;46155;52.364;6.580;2023-08-17T14:13:48;16.93;;;13.70;;
60306;SDS011;46155;52.364;6.580;2023-08-17T14:16:13;16.27;;;14.70;;
60306;SDS011;46155;52.364;6.580;2023-08-17T14:18:38;17.73;;;15.67;;
60306;SDS011;46155;52.364;6.580;2023-08-17T14:21:04;16.67;;;15.07;;
60306;SDS011;46155;52.364;6.580;2023-08-17T14:23:29;16.83;;;15.13;;
60306;SDS011;46155;52.364;6.580;2023-08-17T14:25:54;15.57;;;14.10;;
60306;SDS011;46155;52.364;6.580;2023-08-17T14:28:20;15.63;;;14.07;;
60306;SDS011;46155;52.364;6.580;2023-08-17T14:30:46;19.93;;;14.63;;
60306;SDS011;46155;52.364;6.580;2023-08-17T14:33:11;19.90;;;13.87;;
60306;SDS011;46155;52.364;6.580;2023-08-17T14:35:39;18.70;;;15.17;;
60306;SDS011;46155;52.364;6.580;2023-08-17T14:38:04;19.93;;;15.80;;
60306;SDS011;46155;52.364;6.580;2023-08-17T14:40:30;20.70;;;15.90;;
60306;SDS011;46155;52.364;6.580;2023-08-17T14:42:55;20.50;;;15.83;;
60306;SDS011;46155;52.364;6.580;2023-08-17T14:45:20;21.57;;;16.03;;
60306;SDS011;46155;52.364;6.580;2023-08-17T14:47:46;18.60;;;15.60;;
60306;SDS011;46155;52.364;6.580;2023-08-17T14:50:11;19.07;;;16.50;;
60306;SDS011;46155;52.364;6.580;2023-08-17T14:52:39;23.20;;;17.30;;
60306;SDS011;46155;52.364;6.580;2023-08-17T14:55:04;24.00;;;17.80;;
60306;SDS011;46155;52.364;6.580;2023-08-17T14:57:30;23.43;;;18.37;;
60306;SDS011;46155;52.364;6.580;2023-08-17T14:59:55;22.40;;;17.43;;
60306;SDS011;46155;52.364;6.580;2023-08-17T15:02:20;20.23;;;15.93;;
60306;SDS011;46155;52.364;6.580;2023-08-17T15:04:46;21.43;;;18.00;;
60306;SDS011;46155;52.364;6.580;2023-08-17T15:07:12;19.63;;;17.57;;
60306;SDS011;46155;52.364;6.580;2023-08-17T15:09:37;17.53;;;15.93;;
60306;SDS011;46155;52.364;6.580;2023-08-17T15:12:04;21.43;;;17.70;;
60306;SDS011;46155;52.364;6.580;2023-08-17T15:14:29;24.13;;;17.50;;
60306;SDS011;46155;52.364;6.580;2023-08-17T15:16:55;19.70;;;16.80;;
60306;SDS011;46155;52.364;6.580;2023-08-17T15:19:20;18.43;;;15.73;;
60306;SDS011;46155;52.364;6.580;2023-08-17T15:21:46;18.87;;;16.97;;
60306;SDS011;46155;52.364;6.580;2023-08-17T15:24:11;18.27;;;16.30;;
60306;SDS011;46155;52.364;6.580;2023-08-17T15:26:36;25.37;;;17.47;;
60306;SDS011;46155;52.364;6.580;2023-08-17T15:29:02;22.97;;;16.07;;
60306;SDS011;46155;52.364;6.580;2023-08-17T15:31:27;23.00;;;16.07;;
60306;SDS011;46155;52.364;6.580;2023-08-17T15:33:53;18.87;;;16.97;;
60306;SDS011;46155;52.364;6.580;2023-08-17T15:36:18;20.80;;;16.50;;
60306;SDS011;46155;52.364;6.580;2023-08-17T15:38:47;18.07;;;15.00;;
60306;SDS011;46155;52.364;6.580;2023-08-17T15:41:13;19.33;;;16.43;;
60306;SDS011;46155;52.364;6.580;2023-08-17T15:43:38;16.90;;;15.10;;
60306;SDS011;46155;52.364;6.580;2023-08-17T15:46:04;22.03;;;16.33;;
60306;SDS011;46155;52.364;6.580;2023-08-17T15:48:30;23.70;;;16.63;;
60306;SDS011;46155;52.364;6.580;2023-08-17T15:50:56;23.40;;;16.43;;
60306;SDS011;46155;52.364;6.580;2023-08-17T15:53:21;23.70;;;15.83;;
60306;SDS011;46155;52.364;6.580;2023-08-17T15:55:47;19.20;;;16.20;;
60306;SDS011;46155;52.364;6.580;2023-08-17T15:58:12;20.77;;;15.57;;
60306;SDS011;46155;52.364;6.580;2023-08-17T16:00:38;17.93;;;15.80;;
60306;SDS011;46155;52.364;6.580;2023-08-17T16:03:04;20.33;;;15.50;;
60306;SDS011;46155;52.364;6.580;2023-08-17T16:05:29;17.27;;;15.47;;
60306;SDS011;46155;52.364;6.580;2023-08-17T16:07:55;16.57;;;14.87;;
60306;SDS011;46155;52.364;6.580;2023-08-17T16:10:20;21.73;;;15.33;;
60306;SDS011;46155;52.364;6.580;2023-08-17T16:12:46;18.30;;;15.40;;
60306;SDS011;46155;52.364;6.580;2023-08-17T16:15:11;16.13;;;14.43;;
60306;SDS011;46155;52.364;6.580;2023-08-17T16:17:36;16.13;;;14.60;;
60306;SDS011;46155;52.364;6.580;2023-08-17T16:20:02;15.17;;;13.57;;
60306;SDS011;46155;52.364;6.580;2023-08-17T16:22:27;17.37;;;14.77;;
60306;SDS011;46155;52.364;6.580;2023-08-17T16:24:52;16.67;;;14.43;;
60306;SDS011;46155;52.364;6.580;2023-08-17T16:27:18;16.30;;;14.70;;
60306;SDS011;46155;52.364;6.580;2023-08-17T16:29:43;18.37;;;15.00;;
60306;SDS011;46155;52.364;6.580;2023-08-17T16:32:08;17.97;;;16.00;;
60306;SDS011;46155;52.364;6.580;2023-08-17T16:34:34;21.03;;;16.20;;
60306;SDS011;46155;52.364;6.580;2023-08-17T16:37:00;18.63;;;15.73;;
60306;SDS011;46155;52.364;6.580;2023-08-17T16:39:25;16.53;;;14.83;;
60306;SDS011;46155;52.364;6.580;2023-08-17T16:41:52;18.80;;;16.40;;
60306;SDS011;46155;52.364;6.580;2023-08-17T16:44:18;16.93;;;15.17;;
60306;SDS011;46155;52.364;6.580;2023-08-17T16:46:44;19.47;;;14.70;;
60306;SDS011;46155;52.364;6.580;2023-08-17T16:49:09;15.40;;;13.83;;
60306;SDS011;46155;52.364;6.580;2023-08-17T16:51:34;15.63;;;14.13;;
60306;SDS011;46155;52.364;6.580;2023-08-17T16:54:00;19.33;;;14.63;;
60306;SDS011;46155;52.364;6.580;2023-08-17T16:56:26;15.43;;;13.87;;
60306;SDS011;46155;52.364;6.580;2023-08-17T16:58:51;15.37;;;13.43;;
60306;SDS011;46155;52.364;6.580;2023-08-17T17:01:16;16.00;;;14.33;;
60306;SDS011;46155;52.364;6.580;2023-08-17T17:03:42;15.23;;;13.83;;
60306;SDS011;46155;52.364;6.580;2023-08-17T17:06:07;16.00;;;13.73;;
60306;SDS011;46155;52.364;6.580;2023-08-17T17:08:33;16.50;;;14.83;;
60306;SDS011;46155;52.364;6.580;2023-08-17T17:10:58;14.37;;;12.97;;
60306;SDS011;46155;52.364;6.580;2023-08-17T17:13:23;14.63;;;13.27;;
60306;SDS011;46155;52.364;6.580;2023-08-17T17:15:49;13.87;;;12.50;;
60306;SDS011;46155;52.364;6.580;2023-08-17T17:18:14;14.77;;;13.37;;
60306;SDS011;46155;52.364;6.580;2023-08-17T17:20:39;15.17;;;12.47;;
60306;SDS011;46155;52.364;6.580;2023-08-17T17:23:05;14.63;;;12.93;;
60306;SDS011;46155;52.364;6.580;2023-08-17T17:25:30;12.80;;;11.60;;
60306;SDS011;46155;52.364;6.580;2023-08-17T17:27:56;14.17;;;12.90;;
60306;SDS011;46155;52.364;6.580;2023-08-17T17:30:21;14.93;;;13.53;;
60306;SDS011;46155;52.364;6.580;2023-08-17T17:32:46;14.90;;;12.37;;
60306;SDS011;46155;52.364;6.580;2023-08-17T17:35:12;12.17;;;11.17;;